createdAt,value
2018-05-10T00:02:22.451Z,60.30
2018-05-10T00:04:50.175Z,60.08
2018-05-10T00:07:17.802Z,60.15
2018-05-10T00:09:45.396Z,60.15
2018-05-10T00:12:13.010Z,60.68
2018-05-10T00:14:40.608Z,60.74
2018-05-10T00:17:08.253Z,61.00
2018-05-10T00:19:35.862Z,61.09
2018-05-10T00:22:03.534Z,61.58
2018-05-10T00:24:31.102Z,62.04
2018-05-10T00:26:58.702Z,62.65
2018-05-10T00:29:26.553Z,63.33
2018-05-10T00:31:54.153Z,63.78
2018-05-10T00:34:21.783Z,63.74
2018-05-10T00:36:49.379Z,63.48
2018-05-10T00:39:16.970Z,62.75
2018-05-10T00:41:44.591Z,63.25
2018-05-10T00:44:12.191Z,62.61
2018-05-10T00:46:39.808Z,62.13
2018-05-10T00:49:07.405Z,62.50
2018-05-10T00:51:35.038Z,62.95
2018-05-10T00:54:02.629Z,63.10
2018-05-10T00:56:30.242Z,63.47
2018-05-10T00:58:57.860Z,62.73
2018-05-10T01:01:25.470Z,62.85
2018-05-10T01:03:53.222Z,63.14
2018-05-10T01:06:20.838Z,63.15
2018-05-10T01:08:48.429Z,63.02
2018-05-10T01:11:16.055Z,62.86
2018-05-10T01:13:43.656Z,63.35
2018-05-10T01:16:11.277Z,63.61
2018-05-10T01:18:38.867Z,63.27
2018-05-10T01:21:06.486Z,63.02
2018-05-10T01:23:34.083Z,62.98
2018-05-10T01:26:01.730Z,62.93
2018-05-10T01:28:29.326Z,63.18
2018-05-10T01:30:56.927Z,63.28
2018-05-10T01:33:24.546Z,63.50
2018-05-10T01:36:03.830Z,63.71
2018-05-10T01:38:31.614Z,63.70
2018-05-10T01:40:59.208Z,63.63
2018-05-10T01:43:26.831Z,64.19
2018-05-10T01:45:54.423Z,64.95
2018-05-10T01:48:22.019Z,64.90
2018-05-10T01:50:49.638Z,65.23
2018-05-10T01:53:17.243Z,64.79
2018-05-10T01:55:45.034Z,65.25
2018-05-10T01:58:12.638Z,65.28
2018-05-10T02:00:40.588Z,65.58
2018-05-10T02:03:08.182Z,65.94
2018-05-10T02:05:35.778Z,65.72
2018-05-10T02:08:03.401Z,65.60
2018-05-10T02:10:31.051Z,65.45
2018-05-10T02:12:58.684Z,65.24
2018-05-10T02:15:26.291Z,65.08
2018-05-10T02:17:53.929Z,65.41
2018-05-10T02:20:21.631Z,65.14
2018-05-10T02:22:49.218Z,65.21
2018-05-10T02:25:16.830Z,64.97
2018-05-10T02:27:44.431Z,64.73
2018-05-10T02:30:12.053Z,64.59
2018-05-10T02:32:39.642Z,64.39
2018-05-10T02:35:07.376Z,64.54
2018-05-10T02:37:35.067Z,64.67
2018-05-10T02:40:02.694Z,64.70
2018-05-10T02:42:30.318Z,64.63
2018-05-10T02:44:57.941Z,64.64
2018-05-10T02:47:25.566Z,64.64
2018-05-10T02:49:53.167Z,64.54
2018-05-10T02:52:21.238Z,64.37
2018-05-10T02:54:48.902Z,64.41
2018-05-10T02:57:16.505Z,64.49
2018-05-10T02:59:44.130Z,64.45
2018-05-10T03:02:11.724Z,64.41
2018-05-10T03:04:39.338Z,64.35
2018-05-10T03:07:06.945Z,64.28
2018-05-10T03:09:34.588Z,64.34
2018-05-10T03:12:02.236Z,64.13
2018-05-10T03:14:29.832Z,64.35
2018-05-10T03:16:57.452Z,64.19
2018-05-10T03:19:25.042Z,64.46
2018-05-10T03:21:52.662Z,65.03
2018-05-10T03:24:20.271Z,65.36
2018-05-10T03:26:48.103Z,65.44
2018-05-10T03:29:15.702Z,65.68
2018-05-10T03:31:43.310Z,66.15
2018-05-10T03:34:10.943Z,66.38
2018-05-10T03:36:38.560Z,66.11
2018-05-10T03:39:06.204Z,66.02
2018-05-10T03:41:33.806Z,65.96
2018-05-10T03:44:01.566Z,65.88
2018-05-10T03:46:29.186Z,65.75
2018-05-10T03:48:56.769Z,66.03
2018-05-10T03:51:24.428Z,66.01
2018-05-10T03:53:52.016Z,65.83
2018-05-10T03:56:19.634Z,65.55
2018-05-10T03:58:47.230Z,65.72
2018-05-10T04:01:15.070Z,66.08
2018-05-10T04:03:54.291Z,65.93
2018-05-10T04:06:33.949Z,66.27
2018-05-10T04:09:15.036Z,66.49
2018-05-10T04:11:42.791Z,66.39
2018-05-10T04:14:10.378Z,66.26
2018-05-10T04:16:37.967Z,66.17
2018-05-10T04:19:05.596Z,66.22
2018-05-10T04:21:33.215Z,66.25
2018-05-10T04:24:00.826Z,66.01
2018-05-10T04:26:28.428Z,66.08
2018-05-10T04:28:56.386Z,65.90
2018-05-10T04:31:23.974Z,65.97
2018-05-10T04:33:51.557Z,65.76
2018-05-10T04:36:19.172Z,65.63
2018-05-10T04:38:47.194Z,65.14
2018-05-10T04:41:14.802Z,64.99
2018-05-10T04:43:42.392Z,64.72
2018-05-10T04:46:10.348Z,64.83
2018-05-10T04:48:37.942Z,64.81
2018-05-10T04:51:05.534Z,64.47
2018-05-10T04:53:33.163Z,63.89
2018-05-10T04:56:00.758Z,63.79
2018-05-10T04:58:28.371Z,63.75
2018-05-10T05:00:55.980Z,63.29
2018-05-10T05:03:24.208Z,62.92
2018-05-10T05:05:52.639Z,62.84
2018-05-10T05:08:20.230Z,62.49
2018-05-10T05:10:47.843Z,62.56
2018-05-10T05:13:15.448Z,62.46
2018-05-10T05:15:43.066Z,62.42
2018-05-10T05:18:10.656Z,62.62
2018-05-10T05:20:38.537Z,62.69
2018-05-10T05:23:06.134Z,62.94
2018-05-10T05:25:33.727Z,62.62
2018-05-10T05:28:01.339Z,62.98
2018-05-10T05:30:28.932Z,62.97
2018-05-10T05:32:56.586Z,63.21
2018-05-10T05:35:24.184Z,63.40
2018-05-10T05:37:51.781Z,63.47
2018-05-10T05:40:19.399Z,63.15
2018-05-10T05:42:46.990Z,63.60
2018-05-10T05:45:14.898Z,63.03
2018-05-10T05:47:42.488Z,62.55
2018-05-10T05:50:10.073Z,62.89
2018-05-10T05:52:37.691Z,62.67
2018-05-10T05:55:05.357Z,62.78
2018-05-10T05:57:32.942Z,63.10
2018-05-10T06:00:00.531Z,62.98
2018-05-10T06:02:28.332Z,63.08
2018-05-10T06:04:55.928Z,63.47
2018-05-10T06:07:23.525Z,63.57
2018-05-10T06:09:51.159Z,63.25
2018-05-10T06:12:18.758Z,63.23
2018-05-10T06:14:46.367Z,62.76
2018-05-10T06:17:13.968Z,62.35
2018-05-10T06:19:41.857Z,62.01
2018-05-10T06:22:09.446Z,61.78
2018-05-10T06:24:37.036Z,60.93
2018-05-10T06:27:04.649Z,60.67
2018-05-10T06:29:32.244Z,60.32
2018-05-10T06:31:59.964Z,60.10
2018-05-10T06:34:27.562Z,59.21
2018-05-10T06:36:55.304Z,58.92
2018-05-10T06:39:22.899Z,59.46
2018-05-10T06:41:50.487Z,58.93
2018-05-10T06:44:18.099Z,58.89
2018-05-10T06:46:46.666Z,58.32
2018-05-10T06:49:14.300Z,58.15
2018-05-10T06:51:41.897Z,58.05
2018-05-10T06:54:09.534Z,57.24
2018-05-10T06:56:37.128Z,57.49
2018-05-10T06:59:04.727Z,57.66
2018-05-10T07:01:32.353Z,57.82
2018-05-10T07:03:59.962Z,57.21
2018-05-10T07:06:27.581Z,56.81
2018-05-10T07:08:55.175Z,56.02
2018-05-10T07:11:23.095Z,56.23
2018-05-10T07:13:50.688Z,55.28
2018-05-10T07:16:18.290Z,55.26
2018-05-10T07:18:45.926Z,55.74
2018-05-10T07:21:13.523Z,55.34
2018-05-10T07:23:41.147Z,55.86
2018-05-10T07:26:08.742Z,54.09
2018-05-10T07:28:36.630Z,53.92
2018-05-10T07:31:04.218Z,54.21
2018-05-10T07:33:31.830Z,53.34
2018-05-10T07:35:59.461Z,52.80
2018-05-10T07:38:27.054Z,53.07
2018-05-10T07:40:54.667Z,52.21
2018-05-10T07:43:22.265Z,52.59
2018-05-10T07:45:50.059Z,53.04
2018-05-10T07:48:17.656Z,52.14
2018-05-10T07:50:45.289Z,51.96
2018-05-10T07:53:12.954Z,52.11
2018-05-10T07:55:40.505Z,51.91
2018-05-10T07:58:08.126Z,51.09
2018-05-10T08:00:35.767Z,51.26
2018-05-10T08:03:03.405Z,51.24
2018-05-10T08:05:31.023Z,50.85
2018-05-10T08:07:58.631Z,50.89
2018-05-10T08:10:26.241Z,51.88
2018-05-10T08:12:53.831Z,51.67
2018-05-10T08:15:22.289Z,51.43
2018-05-10T08:17:49.986Z,51.75
2018-05-10T08:20:17.849Z,50.73
2018-05-10T08:22:45.711Z,50.74
2018-05-10T08:25:13.300Z,49.89
2018-05-10T08:27:46.740Z,48.44
2018-05-10T08:30:14.354Z,49.06
2018-05-10T08:32:41.963Z,48.66
2018-05-10T08:35:09.543Z,47.77
2018-05-10T08:37:37.319Z,46.94
2018-05-10T08:40:04.912Z,46.78
2018-05-10T08:42:32.523Z,46.58
2018-05-10T08:45:00.193Z,45.00
2018-05-10T08:47:27.754Z,45.71
2018-05-10T08:49:55.362Z,46.36
2018-05-10T08:52:22.987Z,45.95
2018-05-10T08:54:50.606Z,45.74
2018-05-10T08:57:18.749Z,45.37
2018-05-10T08:59:46.357Z,45.48
2018-05-10T09:02:13.970Z,45.78
2018-05-10T09:04:41.558Z,44.62
2018-05-10T09:07:09.169Z,44.69
2018-05-10T09:09:36.771Z,44.43
2018-05-10T09:12:04.532Z,43.57
2018-05-10T09:14:32.119Z,42.96
2018-05-10T09:16:59.706Z,42.93
2018-05-10T09:19:27.403Z,42.60
2018-05-10T09:21:54.983Z,42.44
2018-05-10T09:24:22.719Z,41.65
2018-05-10T09:26:50.316Z,40.96
2018-05-10T09:29:18.003Z,41.64
2018-05-10T09:31:45.590Z,41.29
2018-05-10T09:34:13.215Z,39.72
2018-05-10T09:36:40.873Z,39.93
2018-05-10T09:39:08.417Z,39.83
2018-05-10T09:41:36.036Z,39.57
2018-05-10T09:44:03.633Z,39.23
2018-05-10T09:46:31.244Z,38.15
2018-05-10T09:48:58.839Z,37.28
2018-05-10T09:51:26.429Z,37.49
2018-05-10T09:53:54.069Z,37.41
2018-05-10T09:56:22.402Z,37.76
2018-05-10T09:58:50.166Z,37.69
2018-05-10T10:01:17.874Z,37.24
2018-05-10T10:03:45.936Z,36.67
2018-05-10T10:06:13.662Z,36.83
2018-05-10T10:08:41.262Z,36.39
2018-05-10T10:11:08.884Z,37.24
2018-05-10T10:13:36.473Z,36.78
2018-05-10T10:16:04.115Z,37.37
2018-05-10T10:18:31.704Z,36.52
2018-05-10T10:20:59.287Z,36.56
2018-05-10T10:23:26.895Z,36.32
2018-05-10T10:25:54.494Z,36.64
2018-05-10T10:28:22.110Z,36.75
2018-05-10T10:30:49.765Z,37.69
2018-05-10T10:33:17.770Z,36.09
2018-05-10T10:35:45.355Z,35.52
2018-05-10T10:38:13.011Z,37.47
2018-05-10T10:40:40.632Z,37.12
2018-05-10T10:43:08.231Z,36.32
2018-05-10T10:45:35.890Z,36.85
2018-05-10T10:48:03.477Z,35.41
2018-05-10T10:50:31.446Z,35.74
2018-05-10T10:52:59.053Z,34.90
2018-05-10T10:55:26.646Z,35.02
2018-05-10T10:57:54.262Z,35.54
2018-05-10T11:00:22.086Z,35.95
2018-05-10T11:02:49.699Z,34.86
2018-05-10T11:05:17.313Z,35.47
2018-05-10T11:07:45.051Z,35.03
2018-05-10T11:10:13.552Z,36.34
2018-05-10T11:12:41.138Z,35.63
2018-05-10T11:15:08.818Z,33.94
2018-05-10T11:17:36.369Z,34.80
2018-05-10T11:20:04.008Z,33.85
2018-05-10T11:22:31.692Z,32.79
2018-05-10T11:24:59.288Z,33.59
2018-05-10T11:27:26.928Z,33.71
2018-05-10T11:29:54.523Z,34.52
2018-05-10T11:32:22.098Z,34.72
2018-05-10T11:34:49.729Z,37.48
2018-05-10T11:37:17.348Z,40.17
2018-05-10T11:39:44.974Z,41.47
2018-05-10T11:42:12.591Z,42.54
2018-05-10T11:44:40.187Z,42.67
2018-05-10T11:47:07.950Z,43.03
2018-05-10T11:49:35.544Z,43.54
2018-05-10T11:52:03.136Z,44.56
2018-05-10T11:54:30.757Z,45.08
2018-05-10T11:56:58.345Z,45.87
2018-05-10T11:59:25.959Z,46.93
2018-05-10T12:01:53.562Z,50.02
2018-05-10T12:04:21.202Z,52.38
2018-05-10T12:06:48.799Z,62.35
2018-05-10T12:09:16.386Z,65.36
2018-05-10T12:11:44.014Z,66.69
2018-05-10T12:14:11.982Z,73.47
2018-05-10T12:16:39.594Z,80.10
2018-05-10T12:19:07.201Z,81.60
2018-05-10T12:21:35.049Z,82.95
2018-05-10T12:24:02.659Z,84.43
2018-05-10T12:26:30.853Z,76.52
2018-05-10T12:28:58.503Z,79.80
2018-05-10T12:31:26.104Z,78.64
2018-05-10T12:33:53.713Z,78.19
2018-05-10T12:36:21.298Z,77.21
2018-05-10T12:38:48.915Z,80.62
2018-05-10T12:41:17.107Z,79.68
2018-05-10T12:43:44.956Z,79.04
2018-05-10T12:46:12.717Z,79.47
2018-05-10T12:48:40.402Z,78.56
2018-05-10T12:51:07.974Z,78.72
2018-05-10T12:53:35.580Z,77.11
2018-05-10T12:56:03.174Z,78.28
2018-05-10T12:58:30.794Z,77.31
2018-05-10T13:00:58.380Z,77.91
2018-05-10T13:03:26.001Z,75.12
2018-05-10T13:05:53.591Z,75.33
2018-05-10T13:08:21.267Z,76.09
2018-05-10T13:10:48.829Z,78.20
2018-05-10T13:13:16.544Z,79.33
2018-05-10T13:15:44.152Z,77.61
2018-05-10T13:18:11.746Z,77.21
2018-05-10T13:20:39.353Z,76.13
2018-05-10T13:23:06.958Z,76.59
2018-05-10T13:25:34.702Z,75.33
2018-05-10T13:28:02.630Z,78.54
2018-05-10T13:30:30.429Z,76.55
2018-05-10T13:32:58.143Z,76.04
2018-05-10T13:35:25.772Z,77.13
2018-05-10T13:37:53.382Z,75.82
2018-05-10T13:40:20.980Z,75.94
2018-05-10T13:42:48.593Z,77.19
2018-05-10T13:45:16.213Z,77.52
2018-05-10T13:47:43.818Z,77.86
2018-05-10T13:50:13.531Z,76.25
2018-05-10T13:52:41.877Z,75.82
2018-05-10T13:55:09.483Z,75.51
2018-05-10T13:57:37.078Z,76.12
2018-05-10T14:00:04.700Z,75.98
2018-05-10T14:02:32.288Z,77.03
2018-05-10T14:04:59.901Z,74.16
2018-05-10T14:07:27.512Z,75.44
2018-05-10T14:09:55.143Z,74.78
2018-05-10T14:12:22.725Z,73.53
2018-05-10T14:14:50.337Z,72.83
2018-05-10T14:17:17.959Z,76.08
2018-05-10T14:19:45.549Z,75.62
2018-05-10T14:22:13.158Z,77.20
2018-05-10T14:24:40.745Z,76.16
2018-05-10T14:27:08.946Z,76.12
2018-05-10T14:29:36.552Z,76.78
2018-05-10T14:32:04.135Z,76.62
2018-05-10T14:34:31.755Z,77.09
2018-05-10T14:36:59.342Z,79.18
2018-05-10T14:39:26.978Z,79.63
2018-05-10T14:41:55.016Z,78.48
2018-05-10T14:44:22.664Z,80.66
2018-05-10T14:46:50.325Z,78.85
2018-05-10T14:49:17.916Z,77.81
2018-05-10T14:51:45.533Z,77.83
2018-05-10T14:54:13.121Z,79.45
2018-05-10T14:56:40.730Z,80.35
2018-05-10T14:59:08.315Z,79.23
2018-05-10T15:01:36.188Z,80.04
2018-05-10T15:04:03.783Z,79.44
2018-05-10T15:06:31.383Z,79.92
2018-05-10T15:08:59.104Z,79.91
2018-05-10T15:11:26.704Z,78.50
2018-05-10T15:13:54.364Z,77.92
2018-05-10T15:16:22.072Z,78.33
2018-05-10T15:18:49.730Z,78.18
2018-05-10T15:21:17.366Z,78.61
2018-05-10T15:23:45.073Z,77.67
2018-05-10T15:26:12.602Z,76.89
2018-05-10T15:28:40.204Z,77.92
2018-05-10T15:31:07.910Z,75.66
2018-05-10T15:33:35.503Z,76.58
2018-05-10T15:36:03.327Z,74.87
2018-05-10T15:38:30.935Z,75.28
2018-05-10T15:40:58.527Z,76.71
2018-05-10T15:43:26.146Z,76.59
2018-05-10T15:45:53.761Z,77.40
2018-05-10T15:48:21.688Z,76.50
2018-05-10T15:50:49.349Z,75.76
2018-05-10T15:53:16.947Z,75.19
2018-05-10T15:55:47.009Z,76.72
2018-05-10T15:58:14.602Z,76.04
2018-05-10T16:00:42.225Z,76.84
2018-05-10T16:03:09.820Z,76.24
2018-05-10T16:05:37.679Z,76.26
2018-05-10T16:08:05.267Z,75.58
2018-05-10T16:10:32.863Z,76.40
2018-05-10T16:13:00.504Z,76.77
2018-05-10T16:15:28.105Z,76.17
2018-05-10T16:17:56.535Z,75.62
2018-05-10T16:20:24.127Z,76.61
2018-05-10T16:22:51.744Z,77.05
2018-05-10T16:25:19.341Z,73.70
2018-05-10T16:27:47.146Z,74.12
2018-05-10T16:30:14.747Z,75.23
2018-05-10T16:32:42.330Z,73.04
2018-05-10T16:35:09.947Z,74.32
2018-05-10T16:37:37.535Z,74.08
2018-05-10T16:40:05.385Z,74.77
2018-05-10T16:42:32.970Z,73.32
2018-05-10T16:45:01.198Z,73.45
2018-05-10T16:47:28.802Z,74.09
2018-05-10T16:49:56.415Z,74.50
2018-05-10T16:52:24.023Z,73.71
2018-05-10T16:54:51.622Z,76.19
2018-05-10T16:57:19.239Z,76.10
2018-05-10T16:59:46.839Z,73.65
2018-05-10T17:02:14.496Z,74.45
2018-05-10T17:04:42.098Z,75.63
2018-05-10T17:07:09.724Z,76.09
2018-05-10T17:09:37.342Z,75.91
2018-05-10T17:12:04.936Z,73.77
2018-05-10T17:14:32.577Z,73.98
2018-05-10T17:17:00.161Z,73.51
2018-05-10T17:19:27.970Z,74.59
2018-05-10T17:21:55.577Z,75.45
2018-05-10T17:24:23.177Z,73.61
2018-05-10T17:26:50.800Z,74.18
2018-05-10T17:29:18.395Z,75.12
2018-05-10T17:31:46.013Z,74.87
2018-05-10T17:34:13.613Z,74.69
2018-05-10T17:36:41.625Z,76.19
2018-05-10T17:39:09.320Z,75.25
2018-05-10T17:41:37.044Z,75.64
2018-05-10T17:44:04.609Z,76.16
2018-05-10T17:46:32.204Z,76.79
2018-05-10T17:48:59.876Z,76.04
2018-05-10T17:51:27.484Z,76.39
2018-05-10T17:53:55.351Z,77.06
2018-05-10T17:56:22.958Z,77.80
2018-05-10T17:58:50.549Z,77.61
2018-05-10T18:01:18.204Z,78.03
2018-05-10T18:03:45.803Z,77.60
2018-05-10T18:06:13.422Z,78.78
2018-05-10T18:08:41.024Z,79.68
2018-05-10T18:11:08.849Z,81.85
2018-05-10T18:13:36.549Z,82.18
2018-05-10T18:16:04.068Z,82.49
2018-05-10T18:18:31.687Z,82.98
2018-05-10T18:20:59.278Z,82.94
2018-05-10T18:23:26.980Z,82.82
2018-05-10T18:25:54.515Z,83.22
2018-05-10T18:28:22.151Z,82.40
2018-05-10T18:30:49.748Z,82.60
2018-05-10T18:33:17.543Z,83.08
2018-05-10T18:35:45.095Z,82.61
2018-05-10T18:38:12.769Z,82.66
2018-05-10T18:40:40.392Z,82.12
2018-05-10T18:43:07.994Z,83.43
2018-05-10T18:45:35.761Z,82.66
2018-05-10T18:48:03.358Z,82.82
2018-05-10T18:50:30.980Z,83.45
2018-05-10T18:52:58.601Z,84.01
2018-05-10T18:55:26.306Z,83.24
2018-05-10T18:57:54.319Z,83.46
2018-05-10T19:00:22.130Z,83.34
2018-05-10T19:02:49.730Z,83.72
2018-05-10T19:05:17.331Z,82.91
2018-05-10T19:07:45.032Z,82.79
2018-05-10T19:10:12.917Z,82.87
2018-05-10T19:12:40.544Z,82.67
2018-05-10T19:15:08.166Z,82.79
2018-05-10T19:17:35.788Z,82.49
2018-05-10T19:20:03.395Z,81.35
2018-05-10T19:22:31.047Z,81.82
2018-05-10T19:24:58.655Z,81.49
2018-05-10T19:27:26.301Z,81.04
2018-05-10T19:29:53.932Z,81.42
2018-05-10T19:32:21.526Z,80.78
2018-05-10T19:34:49.219Z,80.72
2018-05-10T19:37:16.907Z,80.42
2018-05-10T19:39:44.640Z,79.93
2018-05-10T19:42:12.242Z,78.58
2018-05-10T19:44:39.839Z,78.68
2018-05-10T19:47:07.464Z,78.91
2018-05-10T19:49:35.078Z,78.76
2018-05-10T19:52:02.706Z,77.95
2018-05-10T19:54:30.300Z,77.65
2018-05-10T19:56:58.224Z,77.77
2018-05-10T19:59:25.842Z,77.03
2018-05-10T20:01:53.503Z,76.65
2018-05-10T20:04:21.122Z,77.27
2018-05-10T20:06:48.722Z,77.26
2018-05-10T20:09:16.346Z,77.02
2018-05-10T20:11:43.947Z,77.07
2018-05-10T20:14:11.596Z,77.12
2018-05-10T20:16:39.194Z,77.12
2018-05-10T20:19:06.784Z,77.36
2018-05-10T20:21:34.463Z,77.21
2018-05-10T20:24:02.102Z,77.50
2018-05-10T20:26:29.723Z,76.06
2018-05-10T20:28:57.331Z,75.80
2018-05-10T20:31:25.145Z,74.23
2018-05-10T20:33:52.742Z,74.81
2018-05-10T20:36:20.348Z,74.92
2018-05-10T20:38:47.962Z,75.08
2018-05-10T20:41:15.556Z,74.65
2018-05-10T20:43:43.371Z,74.30
2018-05-10T20:46:11.003Z,75.23
2018-05-10T20:48:38.614Z,75.48
2018-05-10T20:51:06.230Z,74.58
2018-05-10T20:53:33.829Z,74.96
2018-05-10T20:56:01.507Z,74.87
2018-05-10T20:58:29.080Z,74.27
2018-05-10T21:00:56.688Z,74.36
2018-05-10T21:03:24.306Z,74.73
2018-05-10T21:05:51.899Z,75.49
2018-05-10T21:08:19.536Z,74.43
2018-05-10T21:10:47.146Z,74.75
2018-05-10T21:13:14.799Z,74.76
2018-05-10T21:15:42.391Z,74.01
2018-05-10T21:18:10.233Z,74.32
2018-05-10T21:20:37.839Z,74.36
2018-05-10T21:23:05.448Z,74.38
2018-05-10T21:25:33.077Z,73.86
2018-05-10T21:28:00.678Z,74.14
2018-05-10T21:30:28.302Z,74.11
2018-05-10T21:32:55.895Z,73.49
2018-05-10T21:35:23.655Z,74.02
2018-05-10T21:37:51.252Z,73.55
2018-05-10T21:40:18.854Z,74.25
2018-05-10T21:42:46.488Z,73.49
2018-05-10T21:45:14.098Z,73.99
2018-05-10T21:47:41.719Z,73.88
2018-05-10T21:50:09.324Z,73.76
2018-05-10T21:52:36.946Z,74.02
2018-05-10T21:55:04.562Z,73.83
2018-05-10T21:57:32.214Z,73.63
2018-05-10T21:59:59.877Z,74.10
2018-05-10T22:02:27.498Z,73.94
2018-05-10T22:04:55.120Z,73.65
2018-05-10T22:07:22.712Z,74.10
2018-05-10T22:09:50.338Z,74.64
2018-05-10T22:12:17.955Z,74.39
2018-05-10T22:14:45.598Z,74.62
2018-05-10T22:17:13.192Z,74.57
2018-05-10T22:19:40.782Z,74.78
2018-05-10T22:22:08.403Z,74.79
2018-05-10T22:24:36.057Z,74.71
2018-05-10T22:27:03.668Z,74.79
2018-05-10T22:29:31.288Z,74.89
2018-05-10T22:31:59.177Z,74.82
2018-05-10T22:34:26.773Z,75.61
2018-05-10T22:36:54.378Z,76.07
2018-05-10T22:39:22.002Z,76.16
2018-05-10T22:41:49.604Z,77.64
2018-05-10T22:44:17.252Z,78.65
2018-05-10T22:46:44.853Z,78.73
2018-05-10T22:49:12.486Z,78.45
2018-05-10T22:51:40.126Z,77.79
2018-05-10T22:54:07.738Z,78.08
2018-05-10T22:56:35.362Z,78.03
2018-05-10T22:59:02.964Z,78.53
2018-05-10T23:01:30.618Z,79.06
2018-05-10T23:03:58.227Z,78.36
2018-05-10T23:06:25.857Z,78.03
2018-05-10T23:08:53.474Z,77.16
2018-05-10T23:11:21.072Z,77.61
2018-05-10T23:13:48.735Z,76.83
2018-05-10T23:16:16.354Z,77.53
2018-05-10T23:18:43.978Z,77.12
2018-05-10T23:21:11.569Z,76.59
2018-05-10T23:23:39.170Z,75.73
2018-05-10T23:26:06.813Z,75.62
2018-05-10T23:28:34.402Z,75.61
2018-05-10T23:31:02.023Z,76.36
2018-05-10T23:33:29.623Z,75.72
2018-05-10T23:35:57.223Z,76.24
2018-05-10T23:38:24.850Z,76.56
2018-05-10T23:40:52.444Z,76.76
2018-05-10T23:43:20.067Z,76.75
2018-05-10T23:45:47.671Z,77.23
2018-05-10T23:48:15.266Z,77.51
2018-05-10T23:50:42.886Z,76.77
2018-05-10T23:53:10.479Z,76.76
2018-05-10T23:55:38.289Z,77.12
2018-05-10T23:58:05.948Z,77.29
